createdAt,value
2023-04-26T00:01:28.442Z,100715.63
2023-04-26T00:03:56.399Z,100707.81
2023-04-26T00:06:23.364Z,100706.50
2023-04-26T00:08:50.084Z,100716.09
2023-04-26T00:11:16.741Z,100718.38
2023-04-26T00:13:43.203Z,100716.25
2023-04-26T00:16:09.612Z,100711.19
2023-04-26T00:18:36.068Z,100720.59
2023-04-26T00:21:02.675Z,100710.38
2023-04-26T00:23:29.096Z,100720.28
2023-04-26T00:25:57.102Z,100717.22
2023-04-26T00:28:23.518Z,100717.88
2023-04-26T00:30:51.116Z,100730.19
2023-04-26T00:33:17.635Z,100722.34
2023-04-26T00:35:44.280Z,100718.81
2023-04-26T00:38:10.697Z,100724.75
2023-04-26T00:40:37.351Z,100715.50
2023-04-26T00:43:03.946Z,100721.72
2023-04-26T00:45:30.643Z,100714.19
2023-04-26T00:47:57.230Z,100715.16
2023-04-26T00:50:24.396Z,100713.91
2023-04-26T00:52:51.507Z,100726.34
2023-04-26T00:55:18.746Z,100723.31
2023-04-26T00:57:46.332Z,100727.16
2023-04-26T01:00:13.185Z,100722.19
2023-04-26T01:02:39.759Z,100728.56
2023-04-26T01:05:06.947Z,100729.09
2023-04-26T01:07:33.743Z,100728.91
2023-04-26T01:10:00.409Z,100734.81
2023-04-26T01:12:27.352Z,100734.47
2023-04-26T01:14:54.768Z,100734.50
2023-04-26T01:17:21.322Z,100735.16
2023-04-26T01:19:48.823Z,100737.88
2023-04-26T01:22:16.198Z,100744.09
2023-04-26T01:24:44.705Z,100742.97
2023-04-26T01:27:11.130Z,100743.44
2023-04-26T01:29:37.562Z,100737.66
2023-04-26T01:32:04.253Z,100740.88
2023-04-26T01:34:30.785Z,100738.94
2023-04-26T01:36:57.163Z,100739.63
2023-04-26T01:39:23.568Z,100748.06
2023-04-26T01:41:49.994Z,100745.22
2023-04-26T01:44:16.648Z,100732.22
2023-04-26T01:46:43.166Z,100740.53
2023-04-26T01:49:09.697Z,100741.16
2023-04-26T01:51:36.326Z,100744.41
2023-04-26T01:54:03.084Z,100737.81
2023-04-26T01:56:29.496Z,100741.50
2023-04-26T01:58:56.395Z,100741.31
2023-04-26T02:01:22.991Z,100749.25
2023-04-26T02:03:49.601Z,100742.22
2023-04-26T02:06:16.168Z,100743.53
2023-04-26T02:08:42.606Z,100744.22
2023-04-26T02:11:09.154Z,100745.31
2023-04-26T02:13:35.538Z,100745.47
2023-04-26T02:16:02.096Z,100746.84
2023-04-26T02:18:29.785Z,100744.53
2023-04-26T02:20:56.524Z,100740.81
2023-04-26T02:23:24.268Z,100747.47
2023-04-26T02:25:50.839Z,100744.91
2023-04-26T02:28:17.421Z,100744.75
2023-04-26T02:30:44.869Z,100745.09
2023-04-26T02:33:11.529Z,100745.75
2023-04-26T02:35:37.941Z,100742.22
2023-04-26T02:38:05.067Z,100743.13
2023-04-26T02:40:31.766Z,100741.69
2023-04-26T02:42:58.283Z,100743.31
2023-04-26T02:45:24.743Z,100744.13
2023-04-26T02:47:51.297Z,100737.97
2023-04-26T02:50:17.889Z,100733.91
2023-04-26T02:52:44.355Z,100732.94
2023-04-26T02:55:10.834Z,100733.06
2023-04-26T02:57:37.264Z,100734.19
2023-04-26T03:00:05.513Z,100732.03
2023-04-26T03:02:32.422Z,100733.50
2023-04-26T03:04:59.075Z,100739.63
2023-04-26T03:07:25.841Z,100736.03
2023-04-26T03:09:52.285Z,100734.75
2023-04-26T03:12:19.039Z,100742.44
2023-04-26T03:14:45.482Z,100741.31
2023-04-26T03:17:11.963Z,100749.16
2023-04-26T03:19:38.421Z,100745.63
2023-04-26T03:22:04.892Z,100747.47
2023-04-26T03:24:31.755Z,100746.72
2023-04-26T03:26:58.192Z,100751.88
2023-04-26T03:29:24.668Z,100754.44
2023-04-26T03:31:51.188Z,100751.41
2023-04-26T03:34:17.655Z,100748.38
2023-04-26T03:36:44.081Z,100751.06
2023-04-26T03:39:11.380Z,100750.00
2023-04-26T03:41:39.369Z,100749.38
2023-04-26T03:44:06.256Z,100754.34
2023-04-26T03:46:32.760Z,100748.13
2023-04-26T03:48:59.220Z,100751.78
2023-04-26T03:51:27.479Z,100741.72
2023-04-26T03:53:54.895Z,100753.13
2023-04-26T03:56:21.558Z,100755.09
2023-04-26T03:58:47.987Z,100755.16
2023-04-26T04:01:14.444Z,100754.47
2023-04-26T04:03:41.692Z,100752.22
2023-04-26T04:06:08.478Z,100756.06
2023-04-26T04:08:34.950Z,100760.16
2023-04-26T04:11:01.611Z,100761.91
2023-04-26T04:13:28.179Z,100760.84
2023-04-26T04:15:54.682Z,100762.25
2023-04-26T04:18:21.225Z,100768.00
2023-04-26T04:20:47.682Z,100766.53
2023-04-26T04:23:14.224Z,100766.16
2023-04-26T04:25:41.046Z,100768.00
2023-04-26T04:28:08.410Z,100781.19
2023-04-26T04:30:35.557Z,100779.03
2023-04-26T04:33:03.175Z,100775.16
2023-04-26T04:35:33.633Z,100777.28
2023-04-26T04:38:01.562Z,100777.88
2023-04-26T04:40:28.240Z,100779.78
2023-04-26T04:42:55.506Z,100780.91
2023-04-26T04:45:22.157Z,100782.91
2023-04-26T04:47:48.757Z,100791.00
2023-04-26T04:50:15.919Z,100796.50
2023-04-26T04:52:42.466Z,100795.00
2023-04-26T04:55:09.850Z,100796.38
2023-04-26T04:57:36.343Z,100802.56
2023-04-26T05:00:09.981Z,100794.97
2023-04-26T05:02:37.341Z,100803.44
2023-04-26T05:05:05.261Z,100811.03
2023-04-26T05:07:32.586Z,100802.13
2023-04-26T05:09:59.917Z,100808.56
2023-04-26T05:12:26.867Z,100810.91
2023-04-26T05:14:53.363Z,100807.06
2023-04-26T05:17:20.311Z,100815.63
2023-04-26T05:19:47.185Z,100812.06
2023-04-26T05:22:18.263Z,100821.56
2023-04-26T05:24:48.204Z,100811.47
2023-04-26T05:27:14.771Z,100819.75
2023-04-26T05:29:41.658Z,100816.28
2023-04-26T05:32:08.307Z,100821.25
2023-04-26T05:34:35.131Z,100827.84
2023-04-26T05:37:01.532Z,100820.00
2023-04-26T05:39:28.288Z,100828.94
2023-04-26T05:41:54.744Z,100838.09
2023-04-26T05:44:21.187Z,100836.66
2023-04-26T05:46:47.702Z,100838.50
2023-04-26T05:49:14.152Z,100844.75
2023-04-26T05:51:40.632Z,100845.41
2023-04-26T05:54:07.424Z,100847.50
2023-04-26T05:56:33.912Z,100856.00
2023-04-26T05:59:00.351Z,100857.44
2023-04-26T06:01:27.604Z,100858.44
2023-04-26T06:03:58.003Z,100861.31
2023-04-26T06:06:26.620Z,100875.56
2023-04-26T06:08:53.088Z,100862.75
2023-04-26T06:11:19.656Z,100876.84
2023-04-26T06:13:46.070Z,100857.16
2023-04-26T06:16:12.622Z,100858.59
2023-04-26T06:18:39.069Z,100854.09
2023-04-26T06:21:05.833Z,100863.25
2023-04-26T06:23:32.233Z,100859.88
2023-04-26T06:25:58.693Z,100859.72
2023-04-26T06:28:25.396Z,100863.53
2023-04-26T06:30:51.861Z,100865.91
2023-04-26T06:33:18.282Z,100878.72
2023-04-26T06:35:44.689Z,100873.94
2023-04-26T06:38:12.876Z,100883.03
2023-04-26T06:40:39.425Z,100880.28
2023-04-26T06:43:05.888Z,100876.16
2023-04-26T06:45:32.562Z,100884.75
2023-04-26T06:48:00.796Z,100877.84
2023-04-26T06:50:27.594Z,100887.25
2023-04-26T06:52:54.317Z,100884.66
2023-04-26T06:55:21.187Z,100889.19
2023-04-26T06:57:47.625Z,100889.66
2023-04-26T07:00:14.632Z,100895.13
2023-04-26T07:02:41.321Z,100885.91
2023-04-26T07:05:08.734Z,100896.06
2023-04-26T07:07:35.759Z,100896.88
2023-04-26T07:10:02.992Z,100899.91
2023-04-26T07:12:29.394Z,100903.53
2023-04-26T07:14:55.839Z,100894.81
2023-04-26T07:17:22.448Z,100885.88
2023-04-26T07:19:48.852Z,100892.25
2023-04-26T07:22:15.311Z,100895.59
2023-04-26T07:24:41.752Z,100898.69
2023-04-26T07:27:08.214Z,100905.75
2023-04-26T07:29:34.790Z,100915.94
2023-04-26T07:32:01.236Z,100901.09
2023-04-26T07:34:27.625Z,100918.75
2023-04-26T07:36:54.085Z,100914.28
2023-04-26T07:39:20.606Z,100908.91
2023-04-26T07:41:47.038Z,100915.97
2023-04-26T07:44:13.458Z,100927.16
2023-04-26T07:46:39.896Z,100931.47
2023-04-26T07:49:06.470Z,100931.13
2023-04-26T07:51:33.331Z,100930.91
2023-04-26T07:53:59.766Z,100928.50
2023-04-26T07:56:26.181Z,100933.19
2023-04-26T07:58:52.914Z,100930.63
2023-04-26T08:01:19.434Z,100937.72
2023-04-26T08:03:46.046Z,100933.88
2023-04-26T08:06:12.897Z,100947.78
2023-04-26T08:08:44.694Z,100944.44
2023-04-26T08:11:11.649Z,100946.59
2023-04-26T08:13:38.198Z,100931.53
2023-04-26T08:16:05.251Z,100941.50
2023-04-26T08:18:31.716Z,100951.41
2023-04-26T08:20:58.510Z,100944.75
2023-04-26T08:23:25.401Z,100956.34
2023-04-26T08:25:52.028Z,100956.41
2023-04-26T08:28:18.504Z,100963.19
2023-04-26T08:30:45.031Z,100959.63
2023-04-26T08:33:11.467Z,100962.91
2023-04-26T08:35:38.028Z,100965.63
2023-04-26T08:38:04.578Z,100966.34
2023-04-26T08:40:31.618Z,100968.53
2023-04-26T08:42:58.082Z,100967.41
2023-04-26T08:45:25.085Z,100965.25
2023-04-26T08:47:56.926Z,100966.72
2023-04-26T08:50:23.715Z,100974.22
2023-04-26T08:52:52.325Z,100966.34
2023-04-26T08:55:22.492Z,100976.06
2023-04-26T08:57:50.718Z,100973.34
2023-04-26T09:00:18.696Z,100972.41
2023-04-26T09:02:53.563Z,100974.09
2023-04-26T09:05:24.654Z,100980.44
2023-04-26T09:07:53.460Z,100979.50
2023-04-26T09:10:21.558Z,100985.44
2023-04-26T09:12:52.714Z,100979.50
2023-04-26T09:15:21.241Z,100978.47
2023-04-26T09:17:49.545Z,100970.59
2023-04-26T09:20:25.774Z,100979.38
2023-04-26T09:22:54.000Z,100975.88
2023-04-26T09:25:31.110Z,100986.69
2023-04-26T09:27:58.286Z,100979.28
2023-04-26T09:30:25.407Z,100984.66
2023-04-26T09:32:51.918Z,100982.38
2023-04-26T09:35:21.141Z,100974.00
2023-04-26T09:38:07.923Z,100983.50
2023-04-26T09:40:46.006Z,100986.56
2023-04-26T09:43:18.058Z,100998.00
2023-04-26T09:45:46.118Z,101006.00
2023-04-26T09:48:34.390Z,101003.00
2023-04-26T09:51:03.837Z,101000.56
2023-04-26T09:53:37.486Z,101002.09
2023-04-26T09:56:10.912Z,100997.38
2023-04-26T09:58:46.278Z,101001.50
2023-04-26T10:01:14.824Z,100999.38
2023-04-26T10:03:42.795Z,100995.19
2023-04-26T10:06:10.220Z,100995.13
2023-04-26T10:08:36.692Z,100993.97
2023-04-26T10:11:12.757Z,101001.59
2023-04-26T10:13:41.433Z,101009.00
2023-04-26T10:16:09.731Z,101008.22
2023-04-26T10:18:36.729Z,100999.13
2023-04-26T10:21:26.225Z,100998.34
2023-04-26T10:23:52.960Z,100994.44
2023-04-26T10:26:57.318Z,100980.84
2023-04-26T10:29:46.608Z,101001.06
2023-04-26T10:32:17.197Z,100987.94
2023-04-26T10:34:44.123Z,100988.53
2023-04-26T10:37:11.836Z,100987.84
2023-04-26T10:39:46.504Z,100998.78
2023-04-26T10:42:27.545Z,100997.53
2023-04-26T10:44:55.800Z,100988.63
2023-04-26T10:47:35.911Z,101010.97
2023-04-26T10:50:05.699Z,100994.84
2023-04-26T10:52:33.147Z,101008.22
2023-04-26T10:55:00.862Z,100994.38
2023-04-26T10:57:59.780Z,101014.00
2023-04-26T11:00:29.837Z,101010.22
2023-04-26T11:03:06.373Z,101015.16
2023-04-26T11:05:38.992Z,101010.75
2023-04-26T11:08:16.172Z,101012.47
2023-04-26T11:10:43.604Z,101005.25
2023-04-26T11:13:10.128Z,101011.41
2023-04-26T11:15:36.639Z,101011.94
2023-04-26T11:18:04.921Z,101006.50
2023-04-26T11:20:32.415Z,101000.38
2023-04-26T11:22:59.703Z,101018.97
2023-04-26T11:25:30.409Z,101014.94
2023-04-26T11:28:01.223Z,101013.06
2023-04-26T11:30:32.145Z,101010.78
2023-04-26T11:33:00.385Z,101020.72
2023-04-26T11:35:29.350Z,101024.78
2023-04-26T11:37:59.612Z,101024.38
2023-04-26T11:40:30.811Z,101025.81
2023-04-26T11:43:08.470Z,101017.63
2023-04-26T11:45:36.583Z,101021.59
2023-04-26T11:48:06.063Z,101029.81
2023-04-26T11:50:34.231Z,101014.53
2023-04-26T11:53:04.008Z,101033.53
2023-04-26T11:55:33.095Z,101029.50
2023-04-26T11:58:00.268Z,101033.50
2023-04-26T12:00:27.248Z,101046.38
2023-04-26T12:02:54.149Z,101042.28
2023-04-26T12:05:32.818Z,101047.94
2023-04-26T12:08:00.764Z,101029.38
2023-04-26T12:10:30.800Z,101033.72
2023-04-26T12:12:59.787Z,101039.31
2023-04-26T12:15:30.401Z,101050.47
2023-04-26T12:18:06.371Z,101045.94
2023-04-26T12:20:35.704Z,101047.19
2023-04-26T12:23:10.018Z,101052.06
2023-04-26T12:25:38.480Z,101061.91
2023-04-26T12:28:08.380Z,101047.06
2023-04-26T12:30:34.807Z,101064.41
2023-04-26T12:33:15.433Z,101046.31
2023-04-26T12:35:44.047Z,101057.13
2023-04-26T12:38:10.873Z,101057.31
2023-04-26T12:40:37.672Z,101050.06
2023-04-26T12:43:04.212Z,101042.94
2023-04-26T12:45:30.779Z,101050.28
2023-04-26T12:47:57.286Z,101047.09
2023-04-26T12:50:23.995Z,101054.25
2023-04-26T12:52:50.537Z,101042.97
2023-04-26T12:55:17.498Z,101039.78
2023-04-26T12:57:44.930Z,101059.31
2023-04-26T13:00:14.117Z,101058.97
2023-04-26T13:02:41.559Z,101065.94
2023-04-26T13:05:08.422Z,101063.94
2023-04-26T13:07:36.255Z,101057.75
2023-04-26T13:10:03.959Z,101061.81
2023-04-26T13:12:30.707Z,101059.91
2023-04-26T13:14:57.212Z,101074.50
2023-04-26T13:17:25.465Z,101062.75
2023-04-26T13:19:52.909Z,101067.41
2023-04-26T13:22:20.754Z,101065.47
2023-04-26T13:24:47.413Z,101067.94
2023-04-26T13:27:14.320Z,101055.66
2023-04-26T13:29:42.009Z,101052.16
2023-04-26T13:32:08.552Z,101060.13
2023-04-26T13:34:35.875Z,101055.63
2023-04-26T13:37:03.898Z,101050.38
2023-04-26T13:39:31.177Z,101053.75
2023-04-26T13:41:59.571Z,101045.50
2023-04-26T13:44:26.931Z,101054.97
2023-04-26T13:46:55.948Z,101044.44
2023-04-26T13:49:24.523Z,101034.16
2023-04-26T13:51:51.046Z,101044.69
2023-04-26T13:54:17.726Z,101049.88
2023-04-26T13:56:44.366Z,101058.53
2023-04-26T13:59:11.125Z,101052.31
2023-04-26T14:01:37.694Z,101051.47
2023-04-26T14:04:04.749Z,101059.34
2023-04-26T14:06:32.855Z,101048.38
2023-04-26T14:08:59.397Z,101059.91
2023-04-26T14:11:26.039Z,101066.16
2023-04-26T14:13:56.087Z,101067.06
2023-04-26T14:16:26.044Z,101064.44
2023-04-26T14:18:52.777Z,101067.66
2023-04-26T14:21:19.839Z,101067.97
2023-04-26T14:23:46.483Z,101063.66
2023-04-26T14:26:13.185Z,101069.78
2023-04-26T14:28:40.943Z,101084.19
2023-04-26T14:31:07.496Z,101076.66
2023-04-26T14:33:34.615Z,101073.72
2023-04-26T14:36:01.083Z,101076.34
2023-04-26T14:38:27.534Z,101076.53
2023-04-26T14:40:53.921Z,101062.06
2023-04-26T14:43:20.548Z,101071.75
2023-04-26T14:45:47.173Z,101075.84
2023-04-26T14:48:13.811Z,101076.50
2023-04-26T14:50:40.609Z,101078.59
2023-04-26T14:53:07.144Z,101084.97
2023-04-26T14:55:33.600Z,101083.72
2023-04-26T14:58:00.008Z,101080.41
2023-04-26T15:00:26.830Z,101084.59
2023-04-26T15:02:53.559Z,101085.59
2023-04-26T15:05:21.671Z,101087.19
2023-04-26T15:07:48.115Z,101083.84
2023-04-26T15:10:14.548Z,101070.88
2023-04-26T15:12:41.563Z,101076.56
2023-04-26T15:15:08.391Z,101078.13
2023-04-26T15:17:34.839Z,101063.75
2023-04-26T15:20:01.524Z,101070.59
2023-04-26T15:22:28.100Z,101078.38
2023-04-26T15:24:54.570Z,101069.44
2023-04-26T15:27:21.056Z,101079.94
2023-04-26T15:29:47.573Z,101077.72
2023-04-26T15:32:14.057Z,101073.16
2023-04-26T15:34:45.847Z,101075.91
2023-04-26T15:37:12.229Z,101082.72
2023-04-26T15:39:38.927Z,101078.94
2023-04-26T15:42:05.682Z,101085.69
2023-04-26T15:44:32.401Z,101081.19
2023-04-26T15:47:00.117Z,101087.16
2023-04-26T15:49:27.394Z,101077.75
2023-04-26T15:51:53.876Z,101075.72
2023-04-26T15:54:21.579Z,101075.91
2023-04-26T15:56:48.569Z,101068.69
2023-04-26T15:59:15.118Z,101070.09
2023-04-26T16:01:41.660Z,101069.06
2023-04-26T16:04:08.864Z,101066.53
2023-04-26T16:06:35.664Z,101066.91
2023-04-26T16:09:17.160Z,101075.59
2023-04-26T16:11:50.388Z,101043.41
2023-04-26T16:14:16.922Z,101058.34
2023-04-26T16:16:45.736Z,101060.19
2023-04-26T16:19:12.456Z,101060.88
2023-04-26T16:21:40.112Z,101073.00
2023-04-26T16:24:08.920Z,101073.56
2023-04-26T16:26:35.795Z,101054.53
2023-04-26T16:29:03.827Z,101058.34
2023-04-26T16:31:31.870Z,101071.00
2023-04-26T16:33:58.964Z,101067.84
2023-04-26T16:36:27.191Z,101071.13
2023-04-26T16:38:54.356Z,101075.69
2023-04-26T16:41:21.060Z,101076.00
2023-04-26T16:43:47.472Z,101075.22
2023-04-26T16:46:13.970Z,101076.91
2023-04-26T16:48:40.793Z,101071.59
2023-04-26T16:51:07.993Z,101066.94
2023-04-26T16:53:34.745Z,101069.09
2023-04-26T16:56:01.235Z,101059.16
2023-04-26T16:58:28.106Z,101067.81
2023-04-26T17:00:54.707Z,101078.75
2023-04-26T17:03:21.989Z,101064.47
2023-04-26T17:05:49.073Z,101062.41
2023-04-26T17:08:16.845Z,101061.13
2023-04-26T17:10:44.944Z,101069.34
2023-04-26T17:13:12.731Z,101080.00
2023-04-26T17:15:40.910Z,101077.25
2023-04-26T17:18:07.896Z,101088.78
2023-04-26T17:20:34.913Z,101091.63
2023-04-26T17:23:02.924Z,101107.38
2023-04-26T17:25:29.914Z,101109.69
2023-04-26T17:27:56.399Z,101113.81
2023-04-26T17:30:23.153Z,101122.16
2023-04-26T17:32:49.801Z,101117.31
2023-04-26T17:35:16.573Z,101116.06
2023-04-26T17:37:43.117Z,101128.97
2023-04-26T17:40:10.041Z,101124.63
2023-04-26T17:42:36.537Z,101123.84
2023-04-26T17:45:05.136Z,101132.97
2023-04-26T17:47:31.717Z,101126.00
2023-04-26T17:49:58.605Z,101124.28
2023-04-26T17:52:25.139Z,101131.59
2023-04-26T17:54:51.703Z,101131.25
2023-04-26T17:57:20.086Z,101124.28
2023-04-26T17:59:46.599Z,101124.97
2023-04-26T18:02:13.211Z,101113.53
2023-04-26T18:04:39.937Z,101123.94
2023-04-26T18:07:07.583Z,101119.72
2023-04-26T18:09:34.105Z,101131.81
2023-04-26T18:12:00.716Z,101119.00
2023-04-26T18:14:27.868Z,101130.19
2023-04-26T18:16:54.558Z,101129.16
2023-04-26T18:19:21.085Z,101126.03
2023-04-26T18:21:50.946Z,101124.59
2023-04-26T18:24:17.701Z,101122.72
2023-04-26T18:26:44.142Z,101121.47
2023-04-26T18:29:10.593Z,101123.88
2023-04-26T18:31:37.274Z,101125.00
2023-04-26T18:34:03.757Z,101129.13
2023-04-26T18:36:31.877Z,101131.97
2023-04-26T18:39:00.772Z,101119.31
2023-04-26T18:41:27.491Z,101127.81
2023-04-26T18:43:54.363Z,101129.84
2023-04-26T18:46:21.342Z,101132.47
2023-04-26T18:48:47.926Z,101129.84
2023-04-26T18:51:14.432Z,101136.03
2023-04-26T18:53:40.956Z,101145.19
2023-04-26T18:56:07.404Z,101133.31
2023-04-26T18:58:34.355Z,101139.56
2023-04-26T19:01:01.035Z,101136.22
2023-04-26T19:03:27.981Z,101131.06
2023-04-26T19:05:54.654Z,101139.44
2023-04-26T19:08:21.126Z,101141.00
2023-04-26T19:10:47.631Z,101139.44
2023-04-26T19:13:14.037Z,101145.38
2023-04-26T19:15:40.549Z,101135.41
2023-04-26T19:18:07.213Z,101138.09
2023-04-26T19:20:33.725Z,101141.56
2023-04-26T19:23:00.339Z,101139.78
2023-04-26T19:25:27.241Z,101134.56
2023-04-26T19:27:53.804Z,101133.31
2023-04-26T19:30:20.382Z,101136.63
2023-04-26T19:32:46.906Z,101134.41
2023-04-26T19:35:13.341Z,101128.94
2023-04-26T19:37:39.755Z,101132.16
2023-04-26T19:40:07.335Z,101136.81
2023-04-26T19:42:33.776Z,101134.09
2023-04-26T19:45:00.573Z,101139.13
2023-04-26T19:47:27.121Z,101140.50
2023-04-26T19:49:55.443Z,101140.50
2023-04-26T19:52:21.966Z,101138.09
2023-04-26T19:54:48.451Z,101136.50
2023-04-26T19:57:15.358Z,101143.25
2023-04-26T19:59:41.857Z,101145.03
2023-04-26T20:02:08.353Z,101139.97
2023-04-26T20:04:35.021Z,101142.75
2023-04-26T20:07:03.843Z,101141.75
2023-04-26T20:09:31.103Z,101145.00
2023-04-26T20:11:58.210Z,101150.91
2023-04-26T20:14:24.780Z,101150.81
2023-04-26T20:16:51.626Z,101152.78
2023-04-26T20:19:18.146Z,101146.75
2023-04-26T20:21:44.633Z,101146.16
2023-04-26T20:24:11.012Z,101150.97
2023-04-26T20:26:37.438Z,101156.38
2023-04-26T20:29:04.209Z,101149.03
2023-04-26T20:31:30.760Z,101147.31
2023-04-26T20:33:58.277Z,101159.16
2023-04-26T20:36:27.228Z,101153.31
2023-04-26T20:38:53.847Z,101155.03
2023-04-26T20:41:20.784Z,101154.16
2023-04-26T20:43:47.209Z,101149.66
2023-04-26T20:46:13.664Z,101157.53
2023-04-26T20:48:40.958Z,101156.47
2023-04-26T20:51:07.434Z,101155.41
2023-04-26T20:53:33.875Z,101152.47
2023-04-26T20:56:00.444Z,101157.84
2023-04-26T20:58:26.913Z,101163.06
2023-04-26T21:00:55.360Z,101155.63
2023-04-26T21:03:22.549Z,101162.72
2023-04-26T21:05:49.315Z,101155.19
2023-04-26T21:08:16.218Z,101164.31
2023-04-26T21:10:42.648Z,101164.00
2023-04-26T21:13:09.275Z,101158.63
2023-04-26T21:15:36.957Z,101166.97
2023-04-26T21:18:03.553Z,101162.78
2023-04-26T21:20:30.043Z,101161.34
2023-04-26T21:22:56.498Z,101158.28
2023-04-26T21:25:22.969Z,101166.97
2023-04-26T21:27:51.794Z,101160.69
2023-04-26T21:30:18.295Z,101157.66
2023-04-26T21:32:44.765Z,101159.28
2023-04-26T21:35:11.517Z,101154.81
2023-04-26T21:37:37.906Z,101157.56
2023-04-26T21:40:04.963Z,101159.28
2023-04-26T21:42:31.808Z,101157.06
2023-04-26T21:44:58.254Z,101158.94
2023-04-26T21:47:24.698Z,101163.13
2023-04-26T21:49:51.450Z,101163.44
2023-04-26T21:52:18.807Z,101160.31
2023-04-26T21:54:45.325Z,101162.38
2023-04-26T21:57:11.791Z,101162.63
2023-04-26T21:59:41.996Z,101173.78
2023-04-26T22:02:08.469Z,101167.31
2023-04-26T22:04:34.912Z,101167.03
2023-04-26T22:07:01.329Z,101165.63
2023-04-26T22:09:27.815Z,101172.66
2023-04-26T22:11:54.380Z,101167.53
2023-04-26T22:14:20.949Z,101173.66
2023-04-26T22:16:47.464Z,101177.19
2023-04-26T22:19:14.315Z,101179.44
2023-04-26T22:21:40.917Z,101169.34
2023-04-26T22:24:07.884Z,101179.63
2023-04-26T22:26:34.337Z,101188.16
2023-04-26T22:29:00.921Z,101190.94
2023-04-26T22:31:27.415Z,101198.75
2023-04-26T22:33:53.982Z,101196.03
2023-04-26T22:36:21.007Z,101204.44
2023-04-26T22:38:47.415Z,101204.25
2023-04-26T22:41:13.837Z,101206.19
2023-04-26T22:43:41.515Z,101205.38
2023-04-26T22:46:08.100Z,101204.59
2023-04-26T22:48:34.622Z,101211.00
2023-04-26T22:51:01.317Z,101211.31
2023-04-26T22:53:27.750Z,101216.44
2023-04-26T22:55:54.183Z,101214.19
2023-04-26T22:58:20.610Z,101211.47
2023-04-26T23:00:47.096Z,101216.78
2023-04-26T23:03:13.732Z,101222.53
2023-04-26T23:05:40.232Z,101227.81
2023-04-26T23:08:06.742Z,101233.59
2023-04-26T23:10:33.319Z,101228.13
2023-04-26T23:13:00.269Z,101223.81
2023-04-26T23:15:27.003Z,101221.91
2023-04-26T23:17:53.873Z,101223.06
2023-04-26T23:20:20.350Z,101228.63
2023-04-26T23:22:46.735Z,101222.06
2023-04-26T23:25:13.144Z,101227.69
2023-04-26T23:27:39.625Z,101227.53
2023-04-26T23:30:07.140Z,101228.19
2023-04-26T23:32:33.678Z,101226.44
2023-04-26T23:35:00.139Z,101221.91
2023-04-26T23:37:26.598Z,101224.66
2023-04-26T23:39:53.021Z,101230.09
2023-04-26T23:42:19.446Z,101219.03
2023-04-26T23:44:45.861Z,101217.44
2023-04-26T23:47:12.269Z,101227.38
2023-04-26T23:49:38.645Z,101214.56
2023-04-26T23:52:05.089Z,101217.59
2023-04-26T23:54:31.670Z,101220.00
2023-04-26T23:56:58.097Z,101206.38
2023-04-26T23:59:24.533Z,101210.84
